Time;durP1;ratioP1;P1;durP2;ratioP2;P2;SDS_P1;SDS_P2;PMS_P1;PMS_P2;Temp;Humidity;BMP_temperature;BMP_pressure;BME280_temperature;BME280_humidity;BME280_pressure;Samples;Min_cycle;Max_cycle;Signal;HPM_P1;HPM_P2
2023/05/30 00:01:06;;;;;;;16.23;3.58;;;12.00;99.30;;;;;;4984905;28;20117;-41
2023/05/30 00:03:33;;;;;;;20.48;5.18;;;12.00;99.50;;;;;;4975432;28;20061;-43
2023/05/30 00:06:00;;;;;;;23.65;4.22;;;12.00;99.90;;;;;;4993217;28;20133;-43
2023/05/30 00:08:27;;;;;;;15.43;4.43;;;12.00;99.90;;;;;;4991061;28;20141;-39
2023/05/30 00:10:54;;;;;;;15.15;3.40;;;12.00;99.90;;;;;;4977467;28;20383;-42
2023/05/30 00:13:21;;;;;;;15.65;4.35;;;12.00;99.90;;;;;;4974981;28;20042;-43
2023/05/30 00:15:49;;;;;;;25.02;4.10;;;12.00;99.90;;;;;;4977570;28;20069;-39
2023/05/30 00:18:15;;;;;;;18.10;3.58;;;12.00;99.90;;;;;;4989929;28;20052;-38
2023/05/30 00:20:44;;;;;;;23.77;3.95;;;12.00;99.90;;;;;;4981322;28;20109;-38
2023/05/30 00:23:11;;;;;;;16.02;4.35;;;12.00;99.90;;;;;;4974509;28;20057;-42
2023/05/30 00:25:38;;;;;;;16.70;4.28;;;12.00;99.90;;;;;;4975411;28;20061;-41
2023/05/30 00:28:07;;;;;;;17.38;4.00;;;11.90;99.90;;;;;;4986987;28;20451;-40
2023/05/30 00:30:33;;;;;;;17.98;3.65;;;11.90;99.90;;;;;;4986869;28;20049;-41
2023/05/30 00:33:02;;;;;;;22.33;4.85;;;11.90;99.90;;;;;;4992620;28;20081;-41
2023/05/30 00:35:28;;;;;;;17.80;4.10;;;11.90;99.90;;;;;;4991443;28;20112;-42
2023/05/30 00:38:01;;;;;;;15.30;4.13;;;11.90;99.90;;;;;;4973839;28;20078;-40
2023/05/30 00:40:28;;;;;;;15.93;3.80;;;11.90;99.90;;;;;;4973801;28;20078;-40
2023/05/30 00:42:55;;;;;;;21.63;4.18;;;11.90;99.90;;;;;;4972684;28;20141;-37
2023/05/30 00:45:22;;;;;;;26.65;4.72;;;11.80;99.90;;;;;;4982526;28;20202;-41
2023/05/30 00:47:50;;;;;;;18.85;4.28;;;11.90;99.90;;;;;;4975176;28;20572;-40
2023/05/30 00:50:19;;;;;;;14.90;3.65;;;11.90;99.90;;;;;;4971978;28;20061;-39
2023/05/30 00:52:46;;;;;;;21.02;4.75;;;11.90;99.90;;;;;;4987999;28;20056;-41
2023/05/30 00:55:12;;;;;;;17.67;4.38;;;11.90;99.90;;;;;;4990433;28;20059;-42
2023/05/30 00:57:39;;;;;;;14.90;4.32;;;12.00;99.90;;;;;;4984440;28;20133;-38
2023/05/30 01:00:07;;;;;;;14.00;4.32;;;12.00;99.90;;;;;;4972360;28;20125;-41
2023/05/30 01:02:34;;;;;;;16.85;4.32;;;12.00;99.90;;;;;;4972806;28;20060;-41
2023/05/30 01:05:01;;;;;;;17.30;4.15;;;12.00;99.90;;;;;;4972773;28;20098;-40
2023/05/30 01:07:29;;;;;;;18.38;4.30;;;12.00;99.90;;;;;;4972227;28;20055;-36
2023/05/30 01:09:56;;;;;;;14.48;4.18;;;12.00;99.90;;;;;;4973692;28;20055;-40
2023/05/30 01:12:25;;;;;;;13.75;4.00;;;12.00;99.90;;;;;;4975266;28;20133;-41
2023/05/30 01:14:56;;;;;;;14.68;4.05;;;12.00;99.90;;;;;;4991758;28;20113;-40
2023/05/30 01:17:26;;;;;;;15.38;4.40;;;12.00;99.90;;;;;;4986004;28;20148;-35
2023/05/30 01:20:05;;;;;;;14.10;3.95;;;12.00;99.90;;;;;;4977625;28;20059;-42
2023/05/30 01:22:49;;;;;;;16.88;4.45;;;12.00;99.90;;;;;;4975980;28;20535;-42
2023/05/30 01:25:23;;;;;;;11.98;4.07;;;12.00;99.90;;;;;;4981410;28;20101;-39
2023/05/30 01:28:12;;;;;;;17.17;4.38;;;12.00;99.90;;;;;;4991344;28;20081;-39
2023/05/30 01:30:41;;;;;;;14.40;4.07;;;12.00;99.90;;;;;;4987194;28;20173;-41
2023/05/30 01:33:08;;;;;;;16.30;4.35;;;12.00;99.90;;;;;;4973624;28;20070;-40
2023/05/30 01:35:35;;;;;;;13.70;4.03;;;12.00;99.90;;;;;;4973254;28;20051;-42
2023/05/30 01:38:02;;;;;;;16.38;3.85;;;12.00;99.90;;;;;;4972795;28;20106;-40
2023/05/30 01:40:29;;;;;;;15.13;4.13;;;12.00;99.90;;;;;;4971594;28;20129;-42
2023/05/30 01:42:58;;;;;;;14.75;4.13;;;12.10;99.90;;;;;;4975024;28;20482;-40
2023/05/30 01:45:31;;;;;;;17.13;4.35;;;12.00;99.90;;;;;;4989112;28;20058;-42
2023/05/30 01:47:59;;;;;;;17.10;4.32;;;12.10;99.90;;;;;;4990394;28;20479;-42
2023/05/30 01:50:29;;;;;;;21.05;3.97;;;12.10;99.90;;;;;;4992138;28;20126;-42
2023/05/30 01:52:59;;;;;;;11.23;3.22;;;12.00;99.90;;;;;;4990057;28;20101;-43
2023/05/30 01:55:26;;;;;;;16.27;3.75;;;12.10;99.90;;;;;;4993350;28;20446;-42
2023/05/30 01:57:52;;;;;;;20.17;3.90;;;12.10;99.90;;;;;;4976030;28;20490;-42
2023/05/30 02:00:19;;;;;;;15.68;3.72;;;12.10;99.90;;;;;;4979165;28;20512;-42
2023/05/30 02:02:48;;;;;;;15.60;3.58;;;12.00;99.90;;;;;;4975841;28;20047;-42
2023/05/30 02:05:14;;;;;;;17.83;3.88;;;12.10;99.90;;;;;;4979465;28;20094;-42
2023/05/30 02:07:41;;;;;;;16.92;4.03;;;12.10;99.90;;;;;;4993588;28;20113;-43
2023/05/30 02:10:08;;;;;;;16.13;4.05;;;12.10;99.90;;;;;;4994945;28;20125;-42
2023/05/30 02:12:35;;;;;;;13.70;3.70;;;12.10;99.90;;;;;;4992961;28;20043;-38
2023/05/30 02:15:02;;;;;;;16.13;3.90;;;12.10;99.90;;;;;;4993350;28;20097;-41
2023/05/30 02:17:29;;;;;;;13.73;3.70;;;12.00;99.90;;;;;;4977458;28;20138;-35
2023/05/30 02:19:58;;;;;;;14.68;3.88;;;12.00;99.90;;;;;;4994062;28;20570;-42
2023/05/30 02:22:24;;;;;;;21.45;4.10;;;12.00;99.90;;;;;;4992976;28;20043;-41
2023/05/30 02:24:52;;;;;;;19.52;4.38;;;11.90;99.90;;;;;;4976792;28;20530;-39
2023/05/30 02:27:20;;;;;;;13.50;3.33;;;12.00;99.90;;;;;;4973618;28;20058;-38
2023/05/30 02:29:47;;;;;;;19.05;3.30;;;11.90;99.90;;;;;;4975098;28;20058;-39
2023/05/30 02:32:13;;;;;;;13.25;3.65;;;11.90;99.90;;;;;;4988757;28;20454;-42
2023/05/30 02:34:40;;;;;;;11.30;3.10;;;11.90;99.90;;;;;;4992830;28;20109;-40
2023/05/30 02:37:08;;;;;;;9.93;3.85;;;11.90;99.90;;;;;;4994672;28;20133;-35
2023/05/30 02:39:35;;;;;;;14.32;3.55;;;11.90;99.90;;;;;;4994646;28;20135;-43
2023/05/30 02:42:02;;;;;;;11.45;3.42;;;12.00;99.90;;;;;;4985564;28;20089;-42
2023/05/30 02:44:29;;;;;;;12.30;3.17;;;11.90;99.90;;;;;;4973682;28;20062;-42
2023/05/30 02:46:56;;;;;;;11.82;3.95;;;11.90;99.90;;;;;;4973797;28;20078;-38
2023/05/30 02:49:22;;;;;;;19.63;4.47;;;11.90;99.90;;;;;;4989023;28;20092;-40
2023/05/30 02:51:50;;;;;;;11.45;3.17;;;11.90;99.90;;;;;;4992121;28;20058;-43
2023/05/30 02:54:18;;;;;;;15.82;3.50;;;11.90;99.90;;;;;;4989861;28;20089;-41
2023/05/30 02:56:45;;;;;;;12.27;3.58;;;11.90;99.90;;;;;;4987719;28;20526;-42
2023/05/30 02:59:21;;;;;;;19.05;3.97;;;11.90;99.90;;;;;;4992559;28;20551;-41
2023/05/30 03:01:48;;;;;;;20.30;4.82;;;12.00;99.90;;;;;;4989696;28;20105;-39
2023/05/30 03:04:15;;;;;;;18.50;3.85;;;11.90;99.90;;;;;;4993259;28;20129;-40
2023/05/30 03:06:42;;;;;;;12.27;3.90;;;11.90;99.90;;;;;;4991335;28;20512;-39
2023/05/30 03:09:09;;;;;;;15.38;4.05;;;11.90;99.90;;;;;;4993868;28;20058;-37
2023/05/30 03:11:37;;;;;;;20.33;4.45;;;11.90;99.90;;;;;;4975469;28;20077;-41
2023/05/30 03:14:03;;;;;;;17.75;4.32;;;11.80;99.90;;;;;;4977098;28;20148;-40
2023/05/30 03:16:30;;;;;;;15.02;4.10;;;11.90;99.90;;;;;;4992944;28;20081;-41
2023/05/30 03:18:57;;;;;;;12.68;3.55;;;11.90;99.90;;;;;;4988109;28;20097;-42
2023/05/30 03:21:24;;;;;;;13.85;3.58;;;11.90;99.90;;;;;;4976536;28;20081;-42
2023/05/30 03:23:51;;;;;;;20.23;3.92;;;11.90;99.90;;;;;;4987663;28;20077;-37
2023/05/30 03:26:18;;;;;;;15.35;3.70;;;11.90;99.90;;;;;;4978921;28;20058;-42
2023/05/30 03:28:46;;;;;;;13.38;3.65;;;12.00;99.90;;;;;;4981382;28;20190;-39
2023/05/30 03:31:13;;;;;;;17.77;4.50;;;11.90;99.90;;;;;;4978251;28;20047;-39
2023/05/30 03:33:40;;;;;;;16.55;3.80;;;11.90;99.90;;;;;;4973160;28;20566;-40
2023/05/30 03:36:07;;;;;;;19.92;4.55;;;11.90;99.90;;;;;;4974749;28;20109;-38
2023/05/30 03:38:34;;;;;;;15.85;4.72;;;11.90;99.90;;;;;;4991720;28;20065;-42
2023/05/30 03:41:01;;;;;;;18.15;5.43;;;12.00;99.90;;;;;;4982575;28;20495;-38
2023/05/30 03:43:28;;;;;;;13.45;4.00;;;12.00;99.90;;;;;;4974321;28;20047;-39
2023/05/30 03:45:56;;;;;;;21.75;4.97;;;12.00;99.90;;;;;;4975275;28;20121;-37
2023/05/30 03:48:23;;;;;;;17.60;3.92;;;12.00;99.90;;;;;;4991747;28;20454;-38
2023/05/30 03:50:49;;;;;;;14.13;4.22;;;12.00;99.90;;;;;;4976812;28;20537;-43
2023/05/30 03:53:16;;;;;;;11.95;3.83;;;12.00;99.90;;;;;;4973183;28;20106;-41
2023/05/30 03:55:43;;;;;;;17.17;4.20;;;12.00;99.90;;;;;;4978205;28;20467;-40
2023/05/30 03:58:10;;;;;;;20.50;4.57;;;12.10;99.90;;;;;;4985550;28;20050;-42
2023/05/30 04:00:36;;;;;;;17.98;4.38;;;12.10;99.90;;;;;;4974719;28;20059;-40
2023/05/30 04:03:05;;;;;;;15.73;4.38;;;12.10;99.90;;;;;;4975494;28;20059;-42
2023/05/30 04:05:32;;;;;;;12.30;3.67;;;12.10;99.90;;;;;;4973284;28;20055;-40
2023/05/30 04:07:59;;;;;;;23.17;3.97;;;12.10;99.90;;;;;;4973327;28;20085;-42
2023/05/30 04:10:25;;;;;;;13.02;3.88;;;12.20;99.90;;;;;;4991428;28;20526;-40
2023/05/30 04:12:52;;;;;;;22.88;4.10;;;12.20;99.90;;;;;;4991228;28;20050;-42
2023/05/30 04:15:19;;;;;;;16.40;4.43;;;12.20;99.90;;;;;;4992930;28;20046;-42
2023/05/30 04:17:46;;;;;;;23.13;4.55;;;12.30;99.90;;;;;;4980993;28;20078;-42
2023/05/30 04:20:15;;;;;;;17.95;4.05;;;12.30;99.90;;;;;;4985909;28;20054;-44
2023/05/30 04:22:42;;;;;;;21.30;4.57;;;12.30;99.90;;;;;;4991576;28;20058;-39
2023/05/30 04:25:09;;;;;;;22.73;4.97;;;12.40;99.90;;;;;;4992491;28;20093;-43
2023/05/30 04:27:36;;;;;;;22.27;4.20;;;12.40;99.90;;;;;;4978511;28;20455;-41
2023/05/30 04:30:04;;;;;;;18.77;4.38;;;12.40;99.90;;;;;;4972949;28;20058;-41
2023/05/30 04:32:33;;;;;;;17.00;4.50;;;12.40;99.90;;;;;;4973446;28;20061;-37
2023/05/30 04:35:02;;;;;;;19.33;3.97;;;12.40;99.90;;;;;;4972330;28;20058;-41
2023/05/30 04:37:30;;;;;;;15.80;4.25;;;12.40;99.90;;;;;;4975382;28;20059;-39
2023/05/30 04:39:57;;;;;;;16.88;4.07;;;12.40;99.90;;;;;;4973071;28;20574;-38
2023/05/30 04:42:26;;;;;;;22.45;4.60;;;12.50;99.90;;;;;;4973076;28;20051;-42
2023/05/30 04:44:53;;;;;;;17.08;4.30;;;12.50;99.90;;;;;;4971981;28;20137;-40
2023/05/30 04:47:21;;;;;;;22.13;4.40;;;12.50;99.90;;;;;;4987449;28;20104;-39
2023/05/30 04:49:48;;;;;;;14.10;3.78;;;12.50;99.90;;;;;;4980852;28;20509;-41
2023/05/30 04:52:16;;;;;;;18.40;4.18;;;12.50;99.90;;;;;;4973453;28;20082;-41
2023/05/30 04:54:44;;;;;;;17.70;4.07;;;12.60;99.90;;;;;;4984956;28;20050;-40
2023/05/30 04:57:12;;;;;;;14.07;3.90;;;12.60;99.90;;;;;;4992236;28;20054;-41
2023/05/30 04:59:39;;;;;;;15.50;3.72;;;12.60;99.90;;;;;;4984080;28;20054;-42
2023/05/30 05:02:06;;;;;;;13.90;3.67;;;12.60;99.90;;;;;;4978636;28;20061;-39
2023/05/30 05:04:32;;;;;;;13.00;4.15;;;12.60;99.90;;;;;;4973726;28;20059;-40
2023/05/30 05:06:59;;;;;;;15.68;3.67;;;12.70;99.90;;;;;;4973465;28;20120;-39
2023/05/30 05:09:26;;;;;;;14.73;4.18;;;12.70;99.90;;;;;;4972715;28;20054;-43
2023/05/30 05:11:55;;;;;;;16.45;4.30;;;12.70;99.90;;;;;;4973351;28;20459;-42
2023/05/30 05:14:22;;;;;;;15.75;4.07;;;12.70;99.90;;;;;;4976601;28;20371;-42
2023/05/30 05:16:49;;;;;;;19.10;4.00;;;12.70;99.90;;;;;;4982143;28;20122;-42
2023/05/30 05:19:16;;;;;;;16.00;4.28;;;12.80;99.90;;;;;;4973812;28;20046;-35
2023/05/30 05:21:43;;;;;;;20.85;4.32;;;12.80;99.90;;;;;;4973388;28;20054;-40
2023/05/30 05:24:09;;;;;;;16.58;4.28;;;12.80;99.90;;;;;;4992287;28;20077;-42
2023/05/30 05:26:36;;;;;;;15.85;5.10;;;12.90;99.90;;;;;;4994827;28;20058;-42
2023/05/30 05:29:04;;;;;;;19.40;3.85;;;12.90;99.90;;;;;;4994018;28;20457;-42
2023/05/30 05:31:33;;;;;;;16.50;4.63;;;12.90;99.90;;;;;;4990341;28;20066;-41
2023/05/30 05:33:59;;;;;;;17.98;4.25;;;13.00;99.90;;;;;;4987886;28;20043;-35
2023/05/30 05:36:26;;;;;;;17.52;4.53;;;13.00;99.90;;;;;;4995743;28;20137;-42
2023/05/30 05:38:53;;;;;;;15.15;4.18;;;13.10;99.90;;;;;;4995615;28;20086;-41
2023/05/30 05:41:20;;;;;;;17.98;4.22;;;13.10;99.90;;;;;;4992147;28;20543;-39
2023/05/30 05:43:46;;;;;;;16.48;4.28;;;13.20;99.90;;;;;;4982874;28;20055;-40
2023/05/30 05:46:15;;;;;;;16.58;4.55;;;13.20;99.90;;;;;;4991942;28;20082;-42
2023/05/30 05:48:41;;;;;;;15.88;3.92;;;13.30;99.90;;;;;;4989745;28;20416;-38
2023/05/30 05:51:08;;;;;;;16.05;3.95;;;13.30;99.90;;;;;;4987953;28;20059;-36
2023/05/30 05:53:35;;;;;;;16.67;4.40;;;13.30;99.90;;;;;;4989200;28;20442;-42
2023/05/30 05:56:02;;;;;;;16.13;4.00;;;13.30;99.90;;;;;;4987654;28;20100;-38
2023/05/30 05:58:28;;;;;;;15.27;3.88;;;13.40;99.90;;;;;;4975172;28;20110;-41
2023/05/30 06:00:55;;;;;;;16.80;3.80;;;13.40;99.90;;;;;;4987660;28;20089;-40
2023/05/30 06:03:23;;;;;;;19.08;3.78;;;13.40;99.90;;;;;;4987626;28;20086;-36
2023/05/30 06:05:50;;;;;;;12.82;3.40;;;13.50;99.90;;;;;;4990316;28;20050;-47
2023/05/30 06:08:17;;;;;;;19.95;3.95;;;13.50;99.90;;;;;;4987673;28;20102;-41
2023/05/30 06:10:44;;;;;;;17.77;4.30;;;13.40;99.90;;;;;;4985887;28;20113;-42
2023/05/30 06:13:11;;;;;;;14.85;3.83;;;13.60;99.90;;;;;;4988771;28;20133;-36
2023/05/30 06:15:37;;;;;;;12.90;3.72;;;13.50;99.90;;;;;;4983215;28;20043;-40
2023/05/30 06:18:04;;;;;;;18.75;4.65;;;13.50;99.90;;;;;;4979307;28;20082;-39
2023/05/30 06:20:33;;;;;;;12.90;3.60;;;13.60;99.90;;;;;;4981568;28;20054;-36
2023/05/30 06:22:59;;;;;;;15.68;3.90;;;13.50;99.90;;;;;;4992515;28;20094;-37
2023/05/30 06:25:27;;;;;;;10.98;3.03;;;13.60;99.90;;;;;;4985504;28;20078;-39
2023/05/30 06:27:54;;;;;;;14.98;3.50;;;13.60;99.90;;;;;;4979201;28;20051;-32
2023/05/30 06:30:21;;;;;;;15.13;3.58;;;13.60;99.90;;;;;;4980818;28;20138;-41
2023/05/30 06:32:48;;;;;;;14.30;3.33;;;13.70;99.90;;;;;;4980764;28;20671;-39
2023/05/30 06:35:15;;;;;;;12.73;3.10;;;13.70;99.90;;;;;;4978832;28;20043;-41
2023/05/30 06:37:43;;;;;;;15.35;3.90;;;13.70;99.90;;;;;;4975975;28;20157;-37
2023/05/30 06:40:10;;;;;;;13.85;3.40;;;13.70;99.90;;;;;;4979448;28;20163;-43
2023/05/30 06:42:37;;;;;;;14.23;3.33;;;13.70;99.90;;;;;;4980102;28;20077;-39
2023/05/30 06:45:05;;;;;;;11.60;3.65;;;13.70;99.90;;;;;;4987394;28;20395;-41
2023/05/30 06:47:31;;;;;;;11.05;3.13;;;13.70;99.90;;;;;;4983240;28;20054;-40
2023/05/30 06:49:58;;;;;;;8.50;2.92;;;13.70;99.90;;;;;;4977301;28;20151;-42
2023/05/30 06:52:25;;;;;;;11.35;3.20;;;13.70;99.90;;;;;;4977629;28;20405;-41
2023/05/30 06:54:53;;;;;;;8.65;3.40;;;13.70;99.90;;;;;;4984422;28;20078;-40
2023/05/30 06:57:20;;;;;;;10.63;3.28;;;13.70;99.90;;;;;;4977202;28;20050;-41
2023/05/30 06:59:47;;;;;;;10.60;3.25;;;13.60;99.90;;;;;;4989385;28;20150;-35
2023/05/30 07:02:14;;;;;;;8.38;2.83;;;13.60;99.90;;;;;;4988460;28;20121;-43
2023/05/30 07:04:40;;;;;;;10.93;3.25;;;13.60;99.90;;;;;;4973081;28;20093;-41
2023/05/30 07:07:07;;;;;;;10.00;3.20;;;13.60;99.90;;;;;;4983359;28;20125;-39
2023/05/30 07:09:34;;;;;;;12.15;3.15;;;13.60;99.90;;;;;;4992197;28;20054;-43
2023/05/30 07:12:03;;;;;;;9.70;2.95;;;13.60;99.90;;;;;;4992875;28;20050;-42
2023/05/30 07:14:29;;;;;;;12.43;3.30;;;13.60;99.90;;;;;;4992279;28;20062;-40
2023/05/30 07:16:56;;;;;;;10.82;3.03;;;13.70;99.90;;;;;;4990934;28;20205;-44
2023/05/30 07:19:24;;;;;;;9.27;2.95;;;13.60;99.90;;;;;;4990927;28;20138;-42
2023/05/30 07:21:51;;;;;;;10.10;2.72;;;13.60;99.90;;;;;;4991193;28;20055;-39
2023/05/30 07:24:17;;;;;;;11.88;3.05;;;13.60;99.90;;;;;;4992866;28;20085;-39
2023/05/30 07:26:44;;;;;;;12.40;2.58;;;13.70;99.90;;;;;;4992514;28;20141;-41
2023/05/30 07:29:12;;;;;;;9.98;3.38;;;13.70;99.90;;;;;;4991493;28;20050;-41
2023/05/30 07:31:39;;;;;;;12.90;3.50;;;13.70;99.90;;;;;;4991240;28;20137;-43
2023/05/30 07:34:06;;;;;;;12.38;3.92;;;13.70;99.90;;;;;;4991837;28;20125;-41
2023/05/30 07:36:33;;;;;;;10.73;2.90;;;13.80;99.90;;;;;;4992086;28;20050;-43
2023/05/30 07:38:59;;;;;;;11.15;3.28;;;13.80;99.90;;;;;;4992316;28;20050;-41
2023/05/30 07:41:26;;;;;;;10.80;2.88;;;13.90;99.90;;;;;;4991121;28;20259;-45
2023/05/30 07:43:53;;;;;;;13.00;3.05;;;13.90;99.90;;;;;;4991165;28;20088;-42
2023/05/30 07:46:22;;;;;;;8.82;2.95;;;13.80;99.90;;;;;;4991730;28;20517;-41
2023/05/30 07:48:49;;;;;;;12.05;2.63;;;13.80;99.90;;;;;;4990402;28;20054;-39
2023/05/30 07:51:17;;;;;;;9.23;3.13;;;13.80;99.90;;;;;;4990329;28;20089;-40
2023/05/30 07:53:44;;;;;;;8.13;3.40;;;13.90;99.90;;;;;;4991880;28;20038;-41
2023/05/30 07:56:11;;;;;;;17.15;3.35;;;13.90;99.90;;;;;;4990749;28;20486;-42
2023/05/30 07:58:37;;;;;;;13.63;3.22;;;13.90;99.90;;;;;;4992218;28;20073;-42
2023/05/30 08:01:05;;;;;;;11.00;3.25;;;13.80;99.90;;;;;;4990658;28;20136;-41
2023/05/30 08:03:34;;;;;;;11.68;3.63;;;13.90;99.90;;;;;;4976215;28;20066;-41
2023/05/30 08:06:00;;;;;;;9.55;3.33;;;13.90;99.90;;;;;;4972793;28;20134;-42
2023/05/30 08:08:27;;;;;;;18.15;3.35;;;14.00;99.90;;;;;;4972711;28;20147;-42
2023/05/30 08:10:54;;;;;;;7.30;2.22;;;14.00;99.90;;;;;;4972412;28;20380;-42
2023/05/30 08:13:25;;;;;;;7.68;2.45;;;14.10;99.90;;;;;;4972330;28;20059;-42
2023/05/30 08:15:53;;;;;;;7.32;2.47;;;14.10;99.90;;;;;;4971046;28;20071;-43
2023/05/30 08:18:21;;;;;;;6.00;1.98;;;14.10;99.90;;;;;;4972250;28;20086;-42
2023/05/30 08:20:50;;;;;;;6.35;1.75;;;14.20;99.90;;;;;;4970986;28;20046;-41
2023/05/30 08:23:17;;;;;;;7.13;2.00;;;14.20;99.90;;;;;;4971263;28;20058;-43
2023/05/30 08:25:46;;;;;;;3.70;2.47;;;14.20;99.90;;;;;;4972246;28;20050;-39
2023/05/30 08:28:13;;;;;;;5.72;2.03;;;14.30;99.90;;;;;;4972020;28;20101;-42
2023/05/30 08:30:41;;;;;;;4.30;2.05;;;14.40;99.90;;;;;;4970529;28;20046;-32
2023/05/30 08:33:09;;;;;;;4.68;1.83;;;14.40;99.90;;;;;;4988691;28;20151;-38
2023/05/30 08:35:36;;;;;;;3.22;1.40;;;14.50;99.90;;;;;;4991730;28;20387;-43
2023/05/30 08:38:04;;;;;;;5.60;1.83;;;14.60;99.90;;;;;;4989620;28;20046;-41
2023/05/30 08:40:31;;;;;;;5.50;1.73;;;14.60;99.90;;;;;;4991468;28;20058;-40
2023/05/30 08:42:57;;;;;;;8.65;2.20;;;14.70;99.90;;;;;;4990836;28;20105;-43
2023/05/30 08:45:24;;;;;;;5.75;1.92;;;14.70;99.90;;;;;;4989891;28;20136;-43
2023/05/30 08:47:53;;;;;;;5.22;1.85;;;14.80;99.90;;;;;;4989785;28;20050;-41
2023/05/30 08:50:20;;;;;;;6.50;1.85;;;14.80;99.90;;;;;;4989444;28;20130;-39
2023/05/30 08:52:46;;;;;;;5.97;1.83;;;14.80;99.90;;;;;;4990108;28;20057;-43
2023/05/30 08:55:16;;;;;;;7.38;1.95;;;14.80;99.90;;;;;;4990460;28;20682;-42
2023/05/30 08:57:45;;;;;;;6.35;2.00;;;14.80;99.90;;;;;;4990679;28;20061;-41
2023/05/30 09:00:14;;;;;;;5.40;2.03;;;14.90;99.90;;;;;;4994470;28;20054;-43
2023/05/30 09:02:40;;;;;;;4.25;1.77;;;15.00;99.90;;;;;;4994855;28;20054;-40
2023/05/30 09:05:08;;;;;;;3.35;1.70;;;15.10;99.90;;;;;;4994823;28;20097;-40
2023/05/30 09:07:35;;;;;;;4.97;2.05;;;15.20;99.90;;;;;;4995193;28;20062;-42
2023/05/30 09:10:04;;;;;;;4.55;2.08;;;15.30;99.90;;;;;;4994537;28;20094;-42
2023/05/30 09:12:32;;;;;;;4.43;1.70;;;15.30;99.90;;;;;;4994360;28;20046;-34
2023/05/30 09:14:59;;;;;;;5.03;2.10;;;15.40;99.90;;;;;;4994317;28;20141;-43
2023/05/30 09:17:26;;;;;;;4.65;2.17;;;15.40;99.90;;;;;;4994840;28;20380;-41
2023/05/30 09:19:53;;;;;;;4.38;1.90;;;15.50;99.90;;;;;;4993545;28;20058;-42
2023/05/30 09:22:20;;;;;;;4.55;2.00;;;15.50;99.90;;;;;;4993504;28;20061;-41
2023/05/30 09:24:59;;;;;;;5.00;2.03;;;15.50;99.90;;;;;;4994702;28;20104;-43
2023/05/30 09:27:26;;;;;;;4.80;2.25;;;15.50;99.90;;;;;;4993354;28;20054;-43
2023/05/30 09:29:55;;;;;;;4.53;1.90;;;15.50;99.90;;;;;;4994156;28;20085;-42
2023/05/30 09:32:26;;;;;;;3.95;1.88;;;15.50;99.90;;;;;;4994598;28;20117;-43
2023/05/30 09:34:55;;;;;;;6.72;1.83;;;15.60;99.90;;;;;;4993275;28;20130;-42
2023/05/30 09:37:22;;;;;;;3.58;1.95;;;15.50;99.90;;;;;;4993313;28;20085;-43
2023/05/30 09:40:04;;;;;;;4.97;1.75;;;15.50;99.90;;;;;;4994481;28;20101;-43
2023/05/30 09:42:39;;;;;;;6.40;2.15;;;15.60;99.90;;;;;;4994389;28;20042;-43
2023/05/30 09:45:09;;;;;;;6.30;2.30;;;15.60;99.90;;;;;;4993290;28;20089;-43
2023/05/30 09:47:39;;;;;;;5.07;2.13;;;15.60;99.90;;;;;;4994378;28;20046;-43
2023/05/30 09:50:07;;;;;;;3.38;1.73;;;15.80;99.90;;;;;;4994143;28;20553;-42
2023/05/30 09:52:34;;;;;;;3.42;1.48;;;15.80;99.90;;;;;;4994413;28;20061;-43
2023/05/30 09:55:05;;;;;;;7.57;2.72;;;15.90;99.90;;;;;;4992218;28;20137;-41
2023/05/30 09:57:33;;;;;;;5.72;2.15;;;16.00;99.90;;;;;;4992980;28;20058;-41
2023/05/30 10:00:00;;;;;;;3.67;2.00;;;16.00;99.90;;;;;;4994066;28;20082;-43
2023/05/30 10:02:28;;;;;;;7.57;2.03;;;15.90;99.90;;;;;;4993881;28;20093;-41
2023/05/30 10:04:55;;;;;;;4.10;1.80;;;15.90;99.90;;;;;;4993657;28;20057;-40
2023/05/30 10:07:22;;;;;;;5.68;2.45;;;15.90;99.90;;;;;;4992478;28;20302;-41
2023/05/30 10:09:49;;;;;;;5.40;2.30;;;15.90;99.90;;;;;;4992463;28;20447;-43
2023/05/30 10:12:16;;;;;;;4.03;1.95;;;15.90;99.90;;;;;;4992719;28;20054;-40
2023/05/30 10:14:43;;;;;;;4.35;2.00;;;15.90;99.90;;;;;;4993532;28;20121;-40
2023/05/30 10:17:11;;;;;;;5.10;3.28;;;15.80;99.90;;;;;;4988708;28;20070;-43
2023/05/30 10:19:40;;;;;;;4.20;2.10;;;15.90;99.90;;;;;;4981952;28;20145;-44
2023/05/30 10:22:07;;;;;;;4.43;2.00;;;16.00;99.90;;;;;;4988949;28;20465;-43
2023/05/30 10:24:34;;;;;;;3.88;1.95;;;16.00;99.90;;;;;;4974671;28;20047;-43
2023/05/30 10:27:03;;;;;;;2.83;1.80;;;16.00;99.90;;;;;;4973429;28;20054;-44
2023/05/30 10:29:32;;;;;;;3.80;1.80;;;16.10;99.90;;;;;;4985850;28;20046;-42
2023/05/30 10:32:00;;;;;;;4.15;1.70;;;16.10;99.90;;;;;;4991488;28;20085;-43
2023/05/30 10:34:31;;;;;;;4.40;1.83;;;16.10;99.90;;;;;;4993042;28;20540;-43
2023/05/30 10:36:59;;;;;;;8.13;2.15;;;16.20;99.90;;;;;;4993219;28;20081;-43
2023/05/30 10:39:29;;;;;;;4.10;1.60;;;16.30;99.90;;;;;;4990597;28;20144;-44
2023/05/30 10:41:59;;;;;;;3.95;1.85;;;16.30;99.90;;;;;;4993215;28;20050;-42
2023/05/30 10:44:33;;;;;;;2.05;1.30;;;16.40;99.90;;;;;;4992945;28;20054;-42
2023/05/30 10:47:09;;;;;;;6.20;1.70;;;16.50;99.90;;;;;;4993035;28;20116;-41
2023/05/30 10:49:36;;;;;;;3.80;1.48;;;16.50;99.90;;;;;;4992104;28;20047;-42
2023/05/30 10:52:05;;;;;;;4.75;1.60;;;16.50;99.90;;;;;;4992821;28;20508;-42
2023/05/30 10:54:33;;;;;;;4.55;1.70;;;16.60;99.90;;;;;;4991723;28;20449;-44
2023/05/30 10:57:00;;;;;;;5.88;1.85;;;16.70;99.90;;;;;;4992505;28;20584;-42
2023/05/30 10:59:27;;;;;;;5.35;1.40;;;16.70;99.90;;;;;;4991583;28;20130;-41
2023/05/30 11:02:00;;;;;;;4.65;1.15;;;16.70;99.90;;;;;;4992769;28;20105;-44
2023/05/30 11:04:30;;;;;;;1.85;0.95;;;16.60;99.90;;;;;;4992363;28;20050;-37
2023/05/30 11:06:57;;;;;;;2.67;0.90;;;16.60;99.90;;;;;;4992581;28;20061;-43
2023/05/30 11:09:26;;;;;;;1.60;1.00;;;16.50;99.90;;;;;;4990720;28;20082;-41
2023/05/30 11:11:55;;;;;;;2.90;1.10;;;16.60;99.90;;;;;;4992165;28;20465;-43
2023/05/30 11:14:25;;;;;;;1.55;0.80;;;16.60;99.90;;;;;;4992573;28;20101;-43
2023/05/30 11:16:56;;;;;;;1.70;1.00;;;16.60;99.90;;;;;;4992028;28;20051;-42
2023/05/30 11:19:25;;;;;;;2.17;0.90;;;16.60;99.90;;;;;;4991001;28;20086;-43
2023/05/30 11:22:10;;;;;;;1.75;1.00;;;16.70;99.90;;;;;;4989652;28;20129;-44
2023/05/30 11:24:40;;;;;;;2.10;0.98;;;16.80;99.90;;;;;;4992380;28;20476;-44
2023/05/30 11:27:12;;;;;;;3.15;1.10;;;16.90;99.90;;;;;;4992661;28;20049;-41
2023/05/30 11:29:44;;;;;;;1.48;0.85;;;17.00;99.90;;;;;;4991262;28;20061;-42
2023/05/30 11:32:11;;;;;;;3.85;1.10;;;17.00;99.90;;;;;;4971983;28;20142;-45
2023/05/30 11:34:38;;;;;;;2.47;0.85;;;17.10;99.90;;;;;;4972617;28;20335;-44
2023/05/30 11:37:05;;;;;;;3.35;0.90;;;17.10;99.90;;;;;;4971408;28;20485;-43
2023/05/30 11:39:32;;;;;;;1.00;0.90;;;17.20;99.90;;;;;;4970957;28;20054;-43
2023/05/30 11:42:01;;;;;;;0.98;0.88;;;17.20;99.90;;;;;;4987145;28;20062;-39
2023/05/30 11:44:29;;;;;;;1.92;0.93;;;17.40;99.90;;;;;;4991397;28;20047;-41
2023/05/30 11:47:03;;;;;;;3.40;1.00;;;17.50;99.90;;;;;;4991625;28;20088;-42
2023/05/30 11:49:30;;;;;;;3.83;1.20;;;17.50;99.90;;;;;;4990649;28;20050;-43
2023/05/30 11:51:57;;;;;;;1.52;0.93;;;17.50;99.90;;;;;;4991095;28;20061;-43
2023/05/30 11:54:23;;;;;;;1.63;0.90;;;17.50;99.90;;;;;;4988782;28;20100;-42
2023/05/30 11:56:51;;;;;;;1.27;1.10;;;17.60;99.90;;;;;;4991377;28;20089;-43
2023/05/30 11:59:20;;;;;;;2.28;1.35;;;17.60;99.90;;;;;;4990351;28;20050;-42
2023/05/30 12:01:51;;;;;;;4.43;1.20;;;17.70;99.90;;;;;;4989417;28;20051;-44
2023/05/30 12:04:20;;;;;;;;;;;17.70;99.70;;;;;;4991980;28;20047;-40
2023/05/30 12:06:57;;;;;;;1.65;1.10;;;17.60;99.60;;;;;;4990561;28;19925;-44
2023/05/30 12:09:24;;;;;;;5.35;1.40;;;17.60;99.90;;;;;;4991418;28;20501;-42
2023/05/30 12:11:58;;;;;;;3.45;1.42;;;17.60;99.90;;;;;;4989519;28;20637;-40
2023/05/30 12:15:03;;;;;;;2.42;1.30;;;17.60;99.80;;;;;;4991361;28;20050;-42
2023/05/30 12:17:30;;;;;;;1.10;1.00;;;17.60;99.60;;;;;;4967204;28;20054;-41
2023/05/30 12:19:57;;;;;;;3.60;1.33;;;17.50;99.70;;;;;;4991346;28;20054;-43
2023/05/30 12:22:24;;;;;;;3.20;1.60;;;17.50;99.70;;;;;;4989366;28;20117;-42
2023/05/30 12:24:52;;;;;;;3.10;1.45;;;17.50;99.70;;;;;;4991072;28;20057;-43
2023/05/30 12:27:19;;;;;;;2.65;1.45;;;17.40;99.60;;;;;;4991336;28;20546;-42
2023/05/30 12:29:46;;;;;;;3.25;1.13;;;17.30;99.70;;;;;;4991289;28;20082;-44
2023/05/30 12:32:14;;;;;;;1.20;1.02;;;17.30;99.90;;;;;;4988523;28;20119;-43
2023/05/30 12:34:43;;;;;;;1.48;1.02;;;17.30;99.60;;;;;;4990757;28;20054;-41
2023/05/30 12:37:11;;;;;;;2.00;1.10;;;17.30;99.60;;;;;;4989834;28;20521;-43
2023/05/30 12:39:48;;;;;;;1.95;0.85;;;17.30;99.60;;;;;;4989744;28;20117;-39
2023/05/30 12:42:14;;;;;;;5.10;1.02;;;17.30;99.30;;;;;;4990030;28;20057;-41
2023/05/30 12:44:51;;;;;;;3.13;1.30;;;17.30;99.10;;;;;;4989451;28;20055;-43